Denton, Maryland
Current Conditions -  °F | °C
As of 6:09 AM on Friday 31 Oct 2014 (Local Time) from KESN Reporting Station
Overcast Overcast  
Wind Chill: 42°   Ceiling: 6000
Heat Index: 46°   Visibility: 10mi
Dew Point: 42°   Wind: 6mph
Humidity: 87%   Direction: 70°ENE
Pressure: 30.04"   Gusts: NA
Location:  38.88°N, 75.83°W
Report Text: KESN 311009Z AUTO 07005KT 10SM OVC060 08/05 A3004 RMK AO2 T00750054
Loading
Personal Weather Stations






























Interactive Weather Map
Tropical Storm Tracking
New forecast layout! Learn more

10-Day Weather Forecast

Advertisements
Track Severe Weather on mobile